Penasco, New Mexico
Current Conditions -  °F | °C
As of 10:55 PM on Wednesday 17 Dec 2014 (Local Time) from KSKX Reporting Station
Overcast Overcast  
Wind Chill: 21°   Ceiling: 400
Heat Index: 30°   Visibility: 10mi
Dew Point: 28°   Wind: 10mph
Humidity: 93%   Direction: 230°SW
Pressure: 30.06"   Gusts: NA
Location:  36.17°N, 105.69°W
Report Text: KSKX 180555Z AUTO 23009KT 10SM OVC004 M01/M02 A3006 RMK AO1 11010 21020 52014
Loading
Personal Weather Stations






























Interactive Weather Map New forecast layout! Learn more

10-Day Weather Forecast

Advertisements
Track Severe Weather on mobile